sensor_id;sensor_type;location;lat;lon;timestamp;temperature;humidity
45435;DHT22;31183;47.404;8.500;2023-07-02T00:00:06;18.60;99.90
45435;DHT22;31183;47.404;8.500;2023-07-02T00:02:33;18.60;99.90
45435;DHT22;31183;47.404;8.500;2023-07-02T00:05:00;18.60;99.90
45435;DHT22;31183;47.404;8.500;2023-07-02T00:07:27;18.60;99.90
45435;DHT22;31183;47.404;8.500;2023-07-02T00:09:54;18.60;99.90
45435;DHT22;31183;47.404;8.500;2023-07-02T00:12:20;18.60;99.90
45435;DHT22;31183;47.404;8.500;2023-07-02T00:14:47;18.50;99.90
45435;DHT22;31183;47.404;8.500;2023-07-02T00:17:14;18.50;99.90
45435;DHT22;31183;47.404;8.500;2023-07-02T00:19:40;18.50;99.90
45435;DHT22;31183;47.404;8.500;2023-07-02T00:22:09;18.50;99.90
45435;DHT22;31183;47.404;8.500;2023-07-02T00:24:36;18.50;99.90
45435;DHT22;31183;47.404;8.500;2023-07-02T00:27:03;18.50;99.90
45435;DHT22;31183;47.404;8.500;2023-07-02T00:29:30;18.50;99.90
45435;DHT22;31183;47.404;8.500;2023-07-02T00:31:57;18.50;99.90
45435;DHT22;31183;47.404;8.500;2023-07-02T00:34:24;18.40;99.90
45435;DHT22;31183;47.404;8.500;2023-07-02T00:36:51;18.40;99.90
45435;DHT22;31183;47.404;8.500;2023-07-02T00:39:18;18.30;99.90
45435;DHT22;31183;47.404;8.500;2023-07-02T00:41:44;18.30;99.90
45435;DHT22;31183;47.404;8.500;2023-07-02T00:44:15;18.20;99.90
45435;DHT22;31183;47.404;8.500;2023-07-02T00:46:42;18.30;99.90
45435;DHT22;31183;47.404;8.500;2023-07-02T00:49:09;18.20;99.90
45435;DHT22;31183;47.404;8.500;2023-07-02T00:51:37;18.20;99.90
45435;DHT22;31183;47.404;8.500;2023-07-02T00:54:04;18.20;99.90
45435;DHT22;31183;47.404;8.500;2023-07-02T00:56:31;18.10;99.90
45435;DHT22;31183;47.404;8.500;2023-07-02T00:58:57;18.10;99.90
45435;DHT22;31183;47.404;8.500;2023-07-02T01:01:26;18.10;99.90
45435;DHT22;31183;47.404;8.500;2023-07-02T01:06:35;18.10;99.90
45435;DHT22;31183;47.404;8.500;2023-07-02T01:09:05;18.10;99.90
45435;DHT22;31183;47.404;8.500;2023-07-02T01:11:42;18.10;99.90
45435;DHT22;31183;47.404;8.500;2023-07-02T01:14:25;18.20;99.90
45435;DHT22;31183;47.404;8.500;2023-07-02T01:16:54;18.20;99.90
45435;DHT22;31183;47.404;8.500;2023-07-02T01:19:44;18.10;99.90
45435;DHT22;31183;47.404;8.500;2023-07-02T01:22:12;18.00;99.90
45435;DHT22;31183;47.404;8.500;2023-07-02T01:24:39;17.90;99.90
45435;DHT22;31183;47.404;8.500;2023-07-02T01:27:06;17.80;99.90
45435;DHT22;31183;47.404;8.500;2023-07-02T01:29:33;17.80;99.90
45435;DHT22;31183;47.404;8.500;2023-07-02T01:32:03;17.80;99.90
45435;DHT22;31183;47.404;8.500;2023-07-02T01:34:30;17.70;99.90
45435;DHT22;31183;47.404;8.500;2023-07-02T01:36:57;17.70;99.90
45435;DHT22;31183;47.404;8.500;2023-07-02T01:39:23;17.60;99.90
45435;DHT22;31183;47.404;8.500;2023-07-02T01:41:54;17.60;99.90
45435;DHT22;31183;47.404;8.500;2023-07-02T01:44:22;17.60;99.90
45435;DHT22;31183;47.404;8.500;2023-07-02T01:46:49;17.50;99.90
45435;DHT22;31183;47.404;8.500;2023-07-02T01:49:16;17.50;99.90
45435;DHT22;31183;47.404;8.500;2023-07-02T01:52:02;17.50;99.90
45435;DHT22;31183;47.404;8.500;2023-07-02T01:54:29;17.50;99.90
45435;DHT22;31183;47.404;8.500;2023-07-02T01:56:56;17.60;99.90
45435;DHT22;31183;47.404;8.500;2023-07-02T01:59:23;17.60;99.90
45435;DHT22;31183;47.404;8.500;2023-07-02T02:01:50;17.60;99.90
45435;DHT22;31183;47.404;8.500;2023-07-02T02:04:17;17.60;99.90
45435;DHT22;31183;47.404;8.500;2023-07-02T02:06:44;17.50;99.90
45435;DHT22;31183;47.404;8.500;2023-07-02T02:09:11;17.50;99.90
45435;DHT22;31183;47.404;8.500;2023-07-02T02:11:43;17.50;99.90
45435;DHT22;31183;47.404;8.500;2023-07-02T02:14:11;17.50;99.90
45435;DHT22;31183;47.404;8.500;2023-07-02T02:16:37;17.50;99.90
45435;DHT22;31183;47.404;8.500;2023-07-02T02:19:04;17.50;99.90
45435;DHT22;31183;47.404;8.500;2023-07-02T02:21:32;17.50;99.90
45435;DHT22;31183;47.404;8.500;2023-07-02T02:23:58;17.50;99.90
45435;DHT22;31183;47.404;8.500;2023-07-02T02:26:25;17.60;99.90
45435;DHT22;31183;47.404;8.500;2023-07-02T02:28:52;17.50;99.90
45435;DHT22;31183;47.404;8.500;2023-07-02T02:31:18;17.50;99.90
45435;DHT22;31183;47.404;8.500;2023-07-02T02:33:45;17.40;99.90
45435;DHT22;31183;47.404;8.500;2023-07-02T02:36:12;17.40;99.90
45435;DHT22;31183;47.404;8.500;2023-07-02T02:38:39;17.40;99.90
45435;DHT22;31183;47.404;8.500;2023-07-02T02:41:06;17.40;99.90
45435;DHT22;31183;47.404;8.500;2023-07-02T02:43:34;17.40;99.90
45435;DHT22;31183;47.404;8.500;2023-07-02T02:46:01;17.50;99.90
45435;DHT22;31183;47.404;8.500;2023-07-02T02:48:28;17.50;99.90
45435;DHT22;31183;47.404;8.500;2023-07-02T02:50:54;17.50;99.90
45435;DHT22;31183;47.404;8.500;2023-07-02T02:53:21;17.50;99.90
45435;DHT22;31183;47.404;8.500;2023-07-02T02:55:48;17.60;99.90
45435;DHT22;31183;47.404;8.500;2023-07-02T02:58:14;17.60;99.90
45435;DHT22;31183;47.404;8.500;2023-07-02T03:00:41;17.60;99.90
45435;DHT22;31183;47.404;8.500;2023-07-02T03:03:12;17.60;99.90
45435;DHT22;31183;47.404;8.500;2023-07-02T03:05:40;17.50;99.90
45435;DHT22;31183;47.404;8.500;2023-07-02T03:08:06;17.50;99.90
45435;DHT22;31183;47.404;8.500;2023-07-02T03:10:33;17.60;99.90
45435;DHT22;31183;47.404;8.500;2023-07-02T03:12:59;17.70;99.90
45435;DHT22;31183;47.404;8.500;2023-07-02T03:15:26;17.60;99.90
45435;DHT22;31183;47.404;8.500;2023-07-02T03:17:53;17.60;99.90
45435;DHT22;31183;47.404;8.500;2023-07-02T03:20:20;17.60;99.90
45435;DHT22;31183;47.404;8.500;2023-07-02T03:22:46;17.70;99.90
45435;DHT22;31183;47.404;8.500;2023-07-02T03:25:13;17.80;99.90
45435;DHT22;31183;47.404;8.500;2023-07-02T03:27:40;17.80;99.90
45435;DHT22;31183;47.404;8.500;2023-07-02T03:30:07;17.80;99.90
45435;DHT22;31183;47.404;8.500;2023-07-02T03:32:34;17.80;99.90
45435;DHT22;31183;47.404;8.500;2023-07-02T03:35:01;17.70;99.90
45435;DHT22;31183;47.404;8.500;2023-07-02T03:37:27;17.60;99.90
45435;DHT22;31183;47.404;8.500;2023-07-02T03:39:54;17.60;99.90
45435;DHT22;31183;47.404;8.500;2023-07-02T03:42:21;17.60;99.90
45435;DHT22;31183;47.404;8.500;2023-07-02T03:44:47;17.50;99.90
45435;DHT22;31183;47.404;8.500;2023-07-02T03:47:14;17.60;99.90
45435;DHT22;31183;47.404;8.500;2023-07-02T03:49:42;17.50;99.90
45435;DHT22;31183;47.404;8.500;2023-07-02T03:52:09;17.40;99.90
45435;DHT22;31183;47.404;8.500;2023-07-02T03:54:39;17.40;99.90
45435;DHT22;31183;47.404;8.500;2023-07-02T03:57:05;17.40;99.90
45435;DHT22;31183;47.404;8.500;2023-07-02T03:59:32;17.40;99.90
45435;DHT22;31183;47.404;8.500;2023-07-02T04:01:59;17.50;99.90
45435;DHT22;31183;47.404;8.500;2023-07-02T04:04:25;17.50;99.90
45435;DHT22;31183;47.404;8.500;2023-07-02T04:06:52;17.60;99.90
45435;DHT22;31183;47.404;8.500;2023-07-02T04:09:19;17.60;99.90
45435;DHT22;31183;47.404;8.500;2023-07-02T04:11:46;17.60;99.90
45435;DHT22;31183;47.404;8.500;2023-07-02T04:14:12;17.70;99.90
45435;DHT22;31183;47.404;8.500;2023-07-02T04:16:39;17.80;99.90
45435;DHT22;31183;47.404;8.500;2023-07-02T04:19:06;18.00;99.90
45435;DHT22;31183;47.404;8.500;2023-07-02T04:21:33;18.10;99.90
45435;DHT22;31183;47.404;8.500;2023-07-02T04:23:59;18.20;99.90
45435;DHT22;31183;47.404;8.500;2023-07-02T04:26:26;18.20;99.90
45435;DHT22;31183;47.404;8.500;2023-07-02T04:29:13;18.20;99.90
45435;DHT22;31183;47.404;8.500;2023-07-02T04:31:40;18.00;99.90
45435;DHT22;31183;47.404;8.500;2023-07-02T04:34:07;17.90;99.90
45435;DHT22;31183;47.404;8.500;2023-07-02T04:36:33;17.80;99.90
45435;DHT22;31183;47.404;8.500;2023-07-02T04:39:00;17.80;99.90
45435;DHT22;31183;47.404;8.500;2023-07-02T04:41:27;17.70;99.90
45435;DHT22;31183;47.404;8.500;2023-07-02T04:43:53;17.60;99.90
45435;DHT22;31183;47.404;8.500;2023-07-02T04:46:20;17.50;99.90
45435;DHT22;31183;47.404;8.500;2023-07-02T04:48:47;17.50;99.90
45435;DHT22;31183;47.404;8.500;2023-07-02T04:51:14;17.50;99.90
45435;DHT22;31183;47.404;8.500;2023-07-02T04:53:41;17.40;99.90
45435;DHT22;31183;47.404;8.500;2023-07-02T04:56:07;17.40;99.90
45435;DHT22;31183;47.404;8.500;2023-07-02T04:58:34;17.40;99.90
45435;DHT22;31183;47.404;8.500;2023-07-02T05:01:01;17.30;99.90
45435;DHT22;31183;47.404;8.500;2023-07-02T05:03:28;17.30;99.90
45435;DHT22;31183;47.404;8.500;2023-07-02T05:05:54;17.30;99.90
45435;DHT22;31183;47.404;8.500;2023-07-02T05:08:21;17.30;99.90
45435;DHT22;31183;47.404;8.500;2023-07-02T05:10:47;17.20;99.90
45435;DHT22;31183;47.404;8.500;2023-07-02T05:13:15;17.30;99.90
45435;DHT22;31183;47.404;8.500;2023-07-02T05:15:41;17.40;99.90
45435;DHT22;31183;47.404;8.500;2023-07-02T05:18:09;17.40;99.90
45435;DHT22;31183;47.404;8.500;2023-07-02T05:20:36;17.40;99.90
45435;DHT22;31183;47.404;8.500;2023-07-02T05:23:03;17.50;99.90
45435;DHT22;31183;47.404;8.500;2023-07-02T05:25:29;17.50;99.90
45435;DHT22;31183;47.404;8.500;2023-07-02T05:27:56;17.60;99.90
45435;DHT22;31183;47.404;8.500;2023-07-02T05:30:23;17.60;99.90
45435;DHT22;31183;47.404;8.500;2023-07-02T05:32:49;17.70;99.90
45435;DHT22;31183;47.404;8.500;2023-07-02T05:35:16;17.70;99.90
45435;DHT22;31183;47.404;8.500;2023-07-02T05:37:43;17.80;99.90
45435;DHT22;31183;47.404;8.500;2023-07-02T05:40:12;17.80;99.90
45435;DHT22;31183;47.404;8.500;2023-07-02T05:42:41;17.70;99.90
45435;DHT22;31183;47.404;8.500;2023-07-02T05:45:09;17.80;99.90
45435;DHT22;31183;47.404;8.500;2023-07-02T05:47:36;17.80;99.90
45435;DHT22;31183;47.404;8.500;2023-07-02T05:50:03;17.80;99.90
45435;DHT22;31183;47.404;8.500;2023-07-02T05:52:30;17.80;99.90
45435;DHT22;31183;47.404;8.500;2023-07-02T05:54:57;17.80;99.90
45435;DHT22;31183;47.404;8.500;2023-07-02T05:57:24;17.80;99.90
45435;DHT22;31183;47.404;8.500;2023-07-02T05:59:50;17.80;99.90
45435;DHT22;31183;47.404;8.500;2023-07-02T06:02:17;17.80;99.90
45435;DHT22;31183;47.404;8.500;2023-07-02T06:04:43;17.80;99.90
45435;DHT22;31183;47.404;8.500;2023-07-02T06:07:10;17.80;99.90
45435;DHT22;31183;47.404;8.500;2023-07-02T06:09:37;17.80;99.90
45435;DHT22;31183;47.404;8.500;2023-07-02T06:12:04;17.80;99.90
45435;DHT22;31183;47.404;8.500;2023-07-02T06:14:30;17.80;99.90
45435;DHT22;31183;47.404;8.500;2023-07-02T06:16:57;17.80;99.90
45435;DHT22;31183;47.404;8.500;2023-07-02T06:19:25;17.80;99.90
45435;DHT22;31183;47.404;8.500;2023-07-02T06:21:52;17.80;99.90
45435;DHT22;31183;47.404;8.500;2023-07-02T06:24:18;17.80;99.90
45435;DHT22;31183;47.404;8.500;2023-07-02T06:26:45;17.70;99.90
45435;DHT22;31183;47.404;8.500;2023-07-02T06:29:12;17.70;99.90
45435;DHT22;31183;47.404;8.500;2023-07-02T06:31:38;17.70;99.90
45435;DHT22;31183;47.404;8.500;2023-07-02T06:34:05;17.80;99.90
45435;DHT22;31183;47.404;8.500;2023-07-02T06:36:34;17.80;99.90
45435;DHT22;31183;47.404;8.500;2023-07-02T06:39:01;17.90;99.90
45435;DHT22;31183;47.404;8.500;2023-07-02T06:41:28;17.90;99.90
45435;DHT22;31183;47.404;8.500;2023-07-02T06:43:54;17.80;99.90
45435;DHT22;31183;47.404;8.500;2023-07-02T06:46:21;17.80;99.90
45435;DHT22;31183;47.404;8.500;2023-07-02T06:48:48;17.90;99.90
45435;DHT22;31183;47.404;8.500;2023-07-02T06:51:15;17.90;99.90
45435;DHT22;31183;47.404;8.500;2023-07-02T06:53:42;17.80;99.90
45435;DHT22;31183;47.404;8.500;2023-07-02T06:56:08;17.80;99.90
45435;DHT22;31183;47.404;8.500;2023-07-02T06:58:41;17.80;99.90
45435;DHT22;31183;47.404;8.500;2023-07-02T07:01:08;17.70;99.90
45435;DHT22;31183;47.404;8.500;2023-07-02T07:03:35;17.70;99.90
45435;DHT22;31183;47.404;8.500;2023-07-02T07:06:02;17.70;99.90
45435;DHT22;31183;47.404;8.500;2023-07-02T07:08:29;17.70;99.90
45435;DHT22;31183;47.404;8.500;2023-07-02T07:10:56;17.70;99.90
45435;DHT22;31183;47.404;8.500;2023-07-02T07:13:22;17.70;99.90
45435;DHT22;31183;47.404;8.500;2023-07-02T07:15:51;17.70;99.90
45435;DHT22;31183;47.404;8.500;2023-07-02T07:18:17;17.70;99.90
45435;DHT22;31183;47.404;8.500;2023-07-02T07:20:45;17.70;99.90
45435;DHT22;31183;47.404;8.500;2023-07-02T07:23:13;17.70;99.90
45435;DHT22;31183;47.404;8.500;2023-07-02T07:25:40;17.70;99.90
45435;DHT22;31183;47.404;8.500;2023-07-02T07:28:07;17.70;99.90
45435;DHT22;31183;47.404;8.500;2023-07-02T07:30:38;17.70;99.90
45435;DHT22;31183;47.404;8.500;2023-07-02T07:33:04;17.70;99.90
45435;DHT22;31183;47.404;8.500;2023-07-02T07:35:31;17.60;99.90
45435;DHT22;31183;47.404;8.500;2023-07-02T07:37:58;17.60;99.90
45435;DHT22;31183;47.404;8.500;2023-07-02T07:40:24;17.70;99.90
45435;DHT22;31183;47.404;8.500;2023-07-02T07:42:51;17.70;99.90
45435;DHT22;31183;47.404;8.500;2023-07-02T07:45:18;17.70;99.90
45435;DHT22;31183;47.404;8.500;2023-07-02T07:47:44;17.70;99.90
45435;DHT22;31183;47.404;8.500;2023-07-02T07:50:11;17.70;99.90
45435;DHT22;31183;47.404;8.500;2023-07-02T07:52:38;17.70;99.90
45435;DHT22;31183;47.404;8.500;2023-07-02T07:55:06;17.80;99.90
45435;DHT22;31183;47.404;8.500;2023-07-02T07:57:34;17.90;99.90
45435;DHT22;31183;47.404;8.500;2023-07-02T08:00:02;17.90;99.90
45435;DHT22;31183;47.404;8.500;2023-07-02T08:02:31;17.90;99.90
45435;DHT22;31183;47.404;8.500;2023-07-02T08:04:58;17.90;99.90
45435;DHT22;31183;47.404;8.500;2023-07-02T08:07:25;18.00;99.90
45435;DHT22;31183;47.404;8.500;2023-07-02T08:09:51;18.00;99.90
45435;DHT22;31183;47.404;8.500;2023-07-02T08:12:18;18.00;99.90
45435;DHT22;31183;47.404;8.500;2023-07-02T08:14:45;18.00;99.90
45435;DHT22;31183;47.404;8.500;2023-07-02T08:17:11;18.00;99.90
45435;DHT22;31183;47.404;8.500;2023-07-02T08:19:38;18.10;99.90
45435;DHT22;31183;47.404;8.500;2023-07-02T08:22:05;18.10;99.90
45435;DHT22;31183;47.404;8.500;2023-07-02T08:24:31;18.10;99.90
45435;DHT22;31183;47.404;8.500;2023-07-02T08:26:58;18.20;99.90
45435;DHT22;31183;47.404;8.500;2023-07-02T08:29:25;18.20;99.90
45435;DHT22;31183;47.404;8.500;2023-07-02T08:31:51;18.30;99.90
45435;DHT22;31183;47.404;8.500;2023-07-02T08:34:18;18.30;99.90
45435;DHT22;31183;47.404;8.500;2023-07-02T08:36:45;18.40;99.90
45435;DHT22;31183;47.404;8.500;2023-07-02T08:39:12;18.30;99.90
45435;DHT22;31183;47.404;8.500;2023-07-02T08:41:43;18.20;99.90
45435;DHT22;31183;47.404;8.500;2023-07-02T08:44:11;18.20;99.90
45435;DHT22;31183;47.404;8.500;2023-07-02T08:46:42;18.30;99.90
45435;DHT22;31183;47.404;8.500;2023-07-02T08:49:15;18.30;99.90
45435;DHT22;31183;47.404;8.500;2023-07-02T08:51:45;18.30;99.90
45435;DHT22;31183;47.404;8.500;2023-07-02T08:54:12;18.40;99.90
45435;DHT22;31183;47.404;8.500;2023-07-02T08:56:39;18.50;99.90
45435;DHT22;31183;47.404;8.500;2023-07-02T08:59:09;18.50;99.90
45435;DHT22;31183;47.404;8.500;2023-07-02T09:01:53;18.60;99.90
45435;DHT22;31183;47.404;8.500;2023-07-02T09:04:22;18.80;99.90
45435;DHT22;31183;47.404;8.500;2023-07-02T09:07:11;18.90;99.90
45435;DHT22;31183;47.404;8.500;2023-07-02T09:09:48;19.00;99.90
45435;DHT22;31183;47.404;8.500;2023-07-02T09:12:31;19.00;99.90
45435;DHT22;31183;47.404;8.500;2023-07-02T09:15:02;19.20;99.90
45435;DHT22;31183;47.404;8.500;2023-07-02T09:17:35;19.30;99.90
45435;DHT22;31183;47.404;8.500;2023-07-02T09:20:04;19.40;99.90
45435;DHT22;31183;47.404;8.500;2023-07-02T09:22:32;19.60;99.90
45435;DHT22;31183;47.404;8.500;2023-07-02T09:25:00;19.70;99.90
45435;DHT22;31183;47.404;8.500;2023-07-02T09:27:53;19.70;99.90
45435;DHT22;31183;47.404;8.500;2023-07-02T09:30:20;19.60;99.90
45435;DHT22;31183;47.404;8.500;2023-07-02T09:32:46;19.50;99.90
45435;DHT22;31183;47.404;8.500;2023-07-02T09:35:13;19.40;99.90
45435;DHT22;31183;47.404;8.500;2023-07-02T09:37:44;19.40;99.90
45435;DHT22;31183;47.404;8.500;2023-07-02T09:40:11;19.40;99.90
45435;DHT22;31183;47.404;8.500;2023-07-02T09:42:39;19.30;99.90
45435;DHT22;31183;47.404;8.500;2023-07-02T09:45:10;19.50;99.90
45435;DHT22;31183;47.404;8.500;2023-07-02T09:47:47;19.70;99.90
45435;DHT22;31183;47.404;8.500;2023-07-02T09:50:17;20.00;99.90
45435;DHT22;31183;47.404;8.500;2023-07-02T09:52:46;20.00;99.90
45435;DHT22;31183;47.404;8.500;2023-07-02T09:55:14;20.10;99.90
45435;DHT22;31183;47.404;8.500;2023-07-02T09:57:43;20.20;99.90
45435;DHT22;31183;47.404;8.500;2023-07-02T10:00:12;20.20;99.90
45435;DHT22;31183;47.404;8.500;2023-07-02T10:02:39;20.40;99.90
45435;DHT22;31183;47.404;8.500;2023-07-02T10:05:06;20.50;99.90
45435;DHT22;31183;47.404;8.500;2023-07-02T10:07:33;20.70;99.90
45435;DHT22;31183;47.404;8.500;2023-07-02T10:10:00;20.90;99.90
45435;DHT22;31183;47.404;8.500;2023-07-02T10:12:29;20.90;99.90
45435;DHT22;31183;47.404;8.500;2023-07-02T10:14:57;20.80;99.90
45435;DHT22;31183;47.404;8.500;2023-07-02T10:17:25;20.90;99.90
45435;DHT22;31183;47.404;8.500;2023-07-02T10:19:53;20.90;99.90
45435;DHT22;31183;47.404;8.500;2023-07-02T10:22:20;20.90;99.90
45435;DHT22;31183;47.404;8.500;2023-07-02T10:24:57;20.90;99.90
45435;DHT22;31183;47.404;8.500;2023-07-02T10:27:40;20.90;99.90
45435;DHT22;31183;47.404;8.500;2023-07-02T10:30:09;21.00;99.40
45435;DHT22;31183;47.404;8.500;2023-07-02T10:32:37;21.10;99.70
45435;DHT22;31183;47.404;8.500;2023-07-02T10:35:17;21.20;99.00
45435;DHT22;31183;47.404;8.500;2023-07-02T10:37:44;21.20;98.50
45435;DHT22;31183;47.404;8.500;2023-07-02T10:40:12;21.10;98.60
45435;DHT22;31183;47.404;8.500;2023-07-02T10:42:49;21.20;98.90
45435;DHT22;31183;47.404;8.500;2023-07-02T10:45:17;21.20;99.90
45435;DHT22;31183;47.404;8.500;2023-07-02T10:47:44;21.40;99.10
45435;DHT22;31183;47.404;8.500;2023-07-02T10:50:19;21.50;98.00
45435;DHT22;31183;47.404;8.500;2023-07-02T10:52:46;21.50;97.60
45435;DHT22;31183;47.404;8.500;2023-07-02T10:55:20;21.50;98.10
45435;DHT22;31183;47.404;8.500;2023-07-02T10:57:47;21.50;98.10
45435;DHT22;31183;47.404;8.500;2023-07-02T11:00:15;21.60;97.40
45435;DHT22;31183;47.404;8.500;2023-07-02T11:02:42;21.50;97.20
45435;DHT22;31183;47.404;8.500;2023-07-02T11:05:09;21.40;97.00
45435;DHT22;31183;47.404;8.500;2023-07-02T11:07:42;21.30;97.20
45435;DHT22;31183;47.404;8.500;2023-07-02T11:10:10;21.30;97.40
45435;DHT22;31183;47.404;8.500;2023-07-02T11:12:43;21.30;97.70
45435;DHT22;31183;47.404;8.500;2023-07-02T11:15:11;21.30;97.20
45435;DHT22;31183;47.404;8.500;2023-07-02T11:17:39;21.30;98.00
45435;DHT22;31183;47.404;8.500;2023-07-02T11:20:10;21.50;98.50
45435;DHT22;31183;47.404;8.500;2023-07-02T11:22:37;21.60;97.90
45435;DHT22;31183;47.404;8.500;2023-07-02T11:27:41;21.80;97.70
45435;DHT22;31183;47.404;8.500;2023-07-02T11:30:08;21.70;97.00
45435;DHT22;31183;47.404;8.500;2023-07-02T11:32:47;21.70;97.10
45435;DHT22;31183;47.404;8.500;2023-07-02T11:35:15;21.70;97.30
45435;DHT22;31183;47.404;8.500;2023-07-02T11:37:43;21.70;96.30
45435;DHT22;31183;47.404;8.500;2023-07-02T11:40:10;21.60;97.10
45435;DHT22;31183;47.404;8.500;2023-07-02T11:42:37;21.70;96.60
45435;DHT22;31183;47.404;8.500;2023-07-02T11:45:04;21.70;96.80
45435;DHT22;31183;47.404;8.500;2023-07-02T11:47:31;21.90;96.50
45435;DHT22;31183;47.404;8.500;2023-07-02T11:49:58;21.90;96.00
45435;DHT22;31183;47.404;8.500;2023-07-02T11:52:48;21.90;96.20
45435;DHT22;31183;47.404;8.500;2023-07-02T11:55:14;21.90;95.60
45435;DHT22;31183;47.404;8.500;2023-07-02T11:57:42;21.90;95.20
45435;DHT22;31183;47.404;8.500;2023-07-02T12:00:09;21.70;95.20
45435;DHT22;31183;47.404;8.500;2023-07-02T12:02:36;21.60;95.30
45435;DHT22;31183;47.404;8.500;2023-07-02T12:05:02;21.60;95.80
45435;DHT22;31183;47.404;8.500;2023-07-02T12:07:33;21.70;95.70
45435;DHT22;31183;47.404;8.500;2023-07-02T12:10:00;21.80;95.20
45435;DHT22;31183;47.404;8.500;2023-07-02T12:12:26;21.80;95.00
45435;DHT22;31183;47.404;8.500;2023-07-02T12:14:53;21.80;94.60
45435;DHT22;31183;47.404;8.500;2023-07-02T12:17:20;21.70;94.70
45435;DHT22;31183;47.404;8.500;2023-07-02T12:19:46;21.60;95.20
45435;DHT22;31183;47.404;8.500;2023-07-02T12:22:13;21.60;95.80
45435;DHT22;31183;47.404;8.500;2023-07-02T12:24:43;21.60;95.50
45435;DHT22;31183;47.404;8.500;2023-07-02T12:27:09;21.60;96.00
45435;DHT22;31183;47.404;8.500;2023-07-02T12:29:37;21.60;95.20
45435;DHT22;31183;47.404;8.500;2023-07-02T12:32:04;21.60;94.90
45435;DHT22;31183;47.404;8.500;2023-07-02T12:34:31;21.70;95.30
45435;DHT22;31183;47.404;8.500;2023-07-02T12:36:58;21.80;94.90
45435;DHT22;31183;47.404;8.500;2023-07-02T12:39:25;21.90;94.80
45435;DHT22;31183;47.404;8.500;2023-07-02T12:41:51;22.00;94.00
45435;DHT22;31183;47.404;8.500;2023-07-02T12:44:18;22.00;93.90
45435;DHT22;31183;47.404;8.500;2023-07-02T12:46:45;22.00;93.60
45435;DHT22;31183;47.404;8.500;2023-07-02T12:49:11;22.00;93.60
45435;DHT22;31183;47.404;8.500;2023-07-02T12:51:39;22.00;94.40
45435;DHT22;31183;47.404;8.500;2023-07-02T12:54:06;21.90;94.00
45435;DHT22;31183;47.404;8.500;2023-07-02T12:56:32;22.00;94.30
45435;DHT22;31183;47.404;8.500;2023-07-02T12:59:01;22.00;94.50
45435;DHT22;31183;47.404;8.500;2023-07-02T13:01:27;22.00;94.30
45435;DHT22;31183;47.404;8.500;2023-07-02T13:03:54;22.10;93.90
45435;DHT22;31183;47.404;8.500;2023-07-02T13:06:21;22.10;94.00
45435;DHT22;31183;47.404;8.500;2023-07-02T13:08:48;22.10;93.90
45435;DHT22;31183;47.404;8.500;2023-07-02T13:11:14;22.10;93.60
45435;DHT22;31183;47.404;8.500;2023-07-02T13:13:41;22.10;93.30
45435;DHT22;31183;47.404;8.500;2023-07-02T13:16:07;22.00;93.50
45435;DHT22;31183;47.404;8.500;2023-07-02T13:18:34;21.90;94.10
45435;DHT22;31183;47.404;8.500;2023-07-02T13:21:01;21.90;94.50
45435;DHT22;31183;47.404;8.500;2023-07-02T13:23:27;21.90;94.50
45435;DHT22;31183;47.404;8.500;2023-07-02T13:25:54;21.90;93.80
45435;DHT22;31183;47.404;8.500;2023-07-02T13:28:21;21.90;93.90
45435;DHT22;31183;47.404;8.500;2023-07-02T13:30:48;21.80;94.30
45435;DHT22;31183;47.404;8.500;2023-07-02T13:33:15;21.80;94.90
45435;DHT22;31183;47.404;8.500;2023-07-02T13:35:42;21.90;94.00
45435;DHT22;31183;47.404;8.500;2023-07-02T13:38:10;21.90;93.50
45435;DHT22;31183;47.404;8.500;2023-07-02T13:40:37;22.00;93.10
45435;DHT22;31183;47.404;8.500;2023-07-02T13:43:04;22.00;93.10
45435;DHT22;31183;47.404;8.500;2023-07-02T13:45:31;21.90;93.00
45435;DHT22;31183;47.404;8.500;2023-07-02T13:47:57;21.90;92.80
45435;DHT22;31183;47.404;8.500;2023-07-02T13:50:24;21.90;93.10
45435;DHT22;31183;47.404;8.500;2023-07-02T13:52:51;21.90;93.30
45435;DHT22;31183;47.404;8.500;2023-07-02T13:55:17;22.00;93.10
45435;DHT22;31183;47.404;8.500;2023-07-02T13:57:44;22.00;92.40
45435;DHT22;31183;47.404;8.500;2023-07-02T14:00:11;22.00;92.80
45435;DHT22;31183;47.404;8.500;2023-07-02T14:02:38;22.00;93.00
45435;DHT22;31183;47.404;8.500;2023-07-02T14:05:05;22.00;93.40
45435;DHT22;31183;47.404;8.500;2023-07-02T14:07:32;21.90;93.60
45435;DHT22;31183;47.404;8.500;2023-07-02T14:09:58;21.80;94.00
45435;DHT22;31183;47.404;8.500;2023-07-02T14:12:25;21.80;94.20
45435;DHT22;31183;47.404;8.500;2023-07-02T14:14:51;21.70;94.30
45435;DHT22;31183;47.404;8.500;2023-07-02T14:17:18;21.60;94.70
45435;DHT22;31183;47.404;8.500;2023-07-02T14:19:45;21.60;95.20
45435;DHT22;31183;47.404;8.500;2023-07-02T14:22:11;21.60;95.30
45435;DHT22;31183;47.404;8.500;2023-07-02T14:24:38;21.50;95.50
45435;DHT22;31183;47.404;8.500;2023-07-02T14:27:05;21.50;95.80
45435;DHT22;31183;47.404;8.500;2023-07-02T14:29:32;21.50;95.90
45435;DHT22;31183;47.404;8.500;2023-07-02T14:31:59;21.50;96.10
45435;DHT22;31183;47.404;8.500;2023-07-02T14:34:25;21.50;96.10
45435;DHT22;31183;47.404;8.500;2023-07-02T14:36:55;21.50;95.80
45435;DHT22;31183;47.404;8.500;2023-07-02T14:39:22;21.60;95.80
45435;DHT22;31183;47.404;8.500;2023-07-02T14:41:49;21.70;95.20
45435;DHT22;31183;47.404;8.500;2023-07-02T14:44:15;21.70;95.40
45435;DHT22;31183;47.404;8.500;2023-07-02T14:46:42;21.70;94.90
45435;DHT22;31183;47.404;8.500;2023-07-02T14:49:09;21.70;94.50
45435;DHT22;31183;47.404;8.500;2023-07-02T14:51:36;21.70;94.50
45435;DHT22;31183;47.404;8.500;2023-07-02T14:54:03;21.70;94.30
45435;DHT22;31183;47.404;8.500;2023-07-02T14:56:30;21.70;94.30
45435;DHT22;31183;47.404;8.500;2023-07-02T14:58:57;21.70;94.50
45435;DHT22;31183;47.404;8.500;2023-07-02T15:01:24;21.70;95.40
45435;DHT22;31183;47.404;8.500;2023-07-02T15:03:50;21.70;95.30
45435;DHT22;31183;47.404;8.500;2023-07-02T15:06:18;21.70;94.90
45435;DHT22;31183;47.404;8.500;2023-07-02T15:08:47;21.80;94.90
45435;DHT22;31183;47.404;8.500;2023-07-02T15:11:15;21.80;95.30
45435;DHT22;31183;47.404;8.500;2023-07-02T15:13:42;21.90;94.90
45435;DHT22;31183;47.404;8.500;2023-07-02T15:16:09;21.90;94.60
45435;DHT22;31183;47.404;8.500;2023-07-02T15:18:38;22.00;94.50
45435;DHT22;31183;47.404;8.500;2023-07-02T15:21:05;22.00;94.30
45435;DHT22;31183;47.404;8.500;2023-07-02T15:23:33;22.00;93.70
45435;DHT22;31183;47.404;8.500;2023-07-02T15:26:01;22.00;93.30
45435;DHT22;31183;47.404;8.500;2023-07-02T15:28:29;22.00;93.10
45435;DHT22;31183;47.404;8.500;2023-07-02T15:30:59;22.00;93.50
45435;DHT22;31183;47.404;8.500;2023-07-02T15:33:26;22.00;93.30
45435;DHT22;31183;47.404;8.500;2023-07-02T15:35:53;22.00;93.20
45435;DHT22;31183;47.404;8.500;2023-07-02T15:38:20;22.00;92.70